Hinton, OK (73047)

4:57 PM CDT on April 30, 2017 (GMT -0500)
West Central Overhead Door | | Change Station

Elev 1611 ft 35.38 °N, 98.23 °W | Updated 28 seconds ago

Overcast
Overcast
46.8 °F
Feels Like 37 °F
N
36.2
Wind Variable Wind from WSW
Gusts 40.0 mph

Today
High -- | Low -- °F
--% Chance of Precip.
Yesterday
High -- | Low -- °F
Precip. -- in
Pressure 29.63 in
Visibility 10.0 miles
Clouds Scattered Clouds 2400 ft
Mostly Cloudy 3000 ft
Overcast 8000 ft
Windchill 37 °F
Dew Point 23 °F
Humidity 39%
Rainfall 0.00 in
Snow Depth Not available.
6:42 AM 8:19 PM
Waxing Crescent, 26% visible
METAR KOJA 302135Z AUTO 29023G32KT 10SM SCT024 BKN030 OVC080 07/05 A2963 RMK AO2
Pressure 29.63 in
Visibility 10.0 miles
Clouds Scattered Clouds 2400 ft
Mostly Cloudy 3000 ft
Overcast 8000 ft
Windchill 37 °F
Dew Point 23 °F
Humidity 39%
Rainfall 0.00 in
Snow Depth Not available.
6:42 AM 8:19 PM
Waxing Crescent, 26% visible
METAR KOJA 302135Z AUTO 29023G32KT 10SM SCT024 BKN030 OVC080 07/05 A2963 RMK AO2

Get Severe Weather Alerts

Thanks for signing up!

Be on the lookout for a verification email in your inbox.

You'll start receiving the daily forecast at 8 AM.

×

10-Day Weather Forecast

Almanac

Astronomy

Apr. 30, 2017 Rise Set
Actual Time
Civil Twilight
Nautical Twilight
Astronomical Twilight
Moon
Length of Visible Light
Length of Day
Tomorrow will be .
, % of the Moon is Illuminated

Today's Extremes

State Highs State Lows

Community

WunderPhotos

WunderBlog® & News

Nearby

Air Quality

  Air Quality AQ Index Pollutant
Not available.

Snow Depth

Station Depth Elevation

Earthquake Activity

City Distance Mag. Time & Date
Minimum magnitude displayed is 2.5.

Coastal Water Temperatures

Place Temperature

Stations

Nearby Weather Stations

Station Location Temp. Windchill Dew Point Humidity Wind Precip. Elev Updated Type
                   

Watches & Warnings

There are currently no watches in effect.